Time;durP1;ratioP1;P1;durP2;ratioP2;P2;SDS_P1;SDS_P2;PMS_P1;PMS_P2;Temp;Humidity;BMP_temperature;BMP_pressure;BME280_temperature;BME280_humidity;BME280_pressure;Samples;Min_cycle;Max_cycle;Signal;HPM_P1;HPM_P2
2022/09/13 00:01:00;;;;;;;5.13;3.47;;;;;;;16.62;91.63;100762.69;4985981;28;20523;-74
2022/09/13 00:03:25;;;;;;;5.35;3.92;;;;;;;16.59;91.49;100763.06;4988977;28;20042;-74
2022/09/13 00:05:51;;;;;;;4.40;3.60;;;;;;;16.59;91.89;100760.44;4984810;28;20038;-74
2022/09/13 00:08:17;;;;;;;5.70;3.55;;;;;;;16.61;92.08;100755.81;4968470;28;20035;-75
2022/09/13 00:10:44;;;;;;;5.82;3.33;;;;;;;16.63;92.13;100762.50;4987878;28;20037;-74
2022/09/13 00:13:11;;;;;;;3.85;2.88;;;;;;;16.61;92.04;100756.63;4973254;28;20642;-75
2022/09/13 00:15:45;;;;;;;4.45;3.38;;;;;;;16.61;92.25;100745.34;4989313;28;20022;-73
2022/09/13 00:18:11;;;;;;;4.15;3.25;;;;;;;16.62;92.20;100754.81;4989388;28;20042;-75
2022/09/13 00:20:36;;;;;;;6.35;3.28;;;;;;;16.63;92.30;100752.00;4971127;28;20029;-74
2022/09/13 00:23:02;;;;;;;5.75;3.17;;;;;;;16.62;92.41;100754.81;4985067;28;20042;-74
2022/09/13 00:25:28;;;;;;;5.65;3.15;;;;;;;16.60;92.52;100762.06;4989264;28;20483;-74
2022/09/13 00:27:53;;;;;;;4.93;2.92;;;;;;;16.60;92.16;100762.06;4965868;28;20049;-75
2022/09/13 00:30:19;;;;;;;3.53;2.80;;;;;;;16.61;92.04;100761.06;4971064;28;20046;-75
2022/09/13 00:32:44;;;;;;;4.90;2.95;;;;;;;16.64;91.23;100753.63;4989304;28;20038;-74
2022/09/13 00:35:10;;;;;;;6.15;3.92;;;;;;;16.64;91.68;100758.84;4988801;28;20708;-73
2022/09/13 00:37:35;;;;;;;5.90;3.10;;;;;;;16.63;92.02;100749.41;4986682;28;20038;-73
2022/09/13 00:40:01;;;;;;;4.28;3.20;;;;;;;16.64;92.23;100752.81;4979855;28;20066;-75
2022/09/13 00:42:31;;;;;;;5.22;2.80;;;;;;;16.67;92.08;100752.41;4986490;28;20040;-75
2022/09/13 00:45:17;;;;;;;5.28;2.80;;;;;;;16.66;92.57;100750.81;4988205;28;20049;-74
2022/09/13 00:47:58;;;;;;;5.25;2.67;;;;;;;16.65;92.65;100744.78;4977806;28;20884;-74
2022/09/13 00:50:29;;;;;;;5.20;2.80;;;;;;;16.66;92.32;100742.94;4984577;28;20057;-75
2022/09/13 00:53:04;;;;;;;5.07;3.20;;;;;;;16.63;91.38;100732.88;4969091;28;20069;-75
2022/09/13 00:55:35;;;;;;;4.45;2.83;;;;;;;16.62;91.30;100733.88;4986804;28;20568;-74
2022/09/13 00:58:06;;;;;;;4.25;2.83;;;;;;;16.62;91.07;100737.31;4983763;28;20041;-75
2022/09/13 01:00:32;;;;;;;4.15;3.03;;;;;;;16.62;90.48;100734.69;4986850;28;20026;-75
2022/09/13 01:03:02;;;;;;;6.60;3.17;;;;;;;16.66;89.10;100740.34;4969044;28;20564;-75
2022/09/13 01:05:33;;;;;;;6.97;3.08;;;;;;;16.63;88.37;100738.09;4970624;28;20399;-75
2022/09/13 01:07:59;;;;;;;6.50;2.75;;;;;;;16.62;89.10;100741.75;4985134;28;20373;-75
2022/09/13 01:10:26;;;;;;;7.32;2.83;;;;;;;16.62;89.05;100741.75;4985427;28;20019;-74
2022/09/13 01:13:13;;;;;;;4.50;2.80;;;;;;;16.62;88.66;100739.91;4986425;28;20683;-74
2022/09/13 01:15:39;;;;;;;26.48;3.50;;;;;;;16.63;88.54;100738.09;4985623;28;20035;-74
2022/09/13 01:18:06;;;;;;;4.43;2.28;;;;;;;16.61;88.61;100734.88;4985098;28;20034;-75
2022/09/13 01:21:00;;;;;;;6.00;2.47;;;;;;;16.61;88.47;100733.06;4986895;28;20101;-75
2022/09/13 01:23:35;;;;;;;4.88;3.15;;;;;;;16.59;88.61;100731.66;4987416;28;20038;-75
2022/09/13 01:26:00;;;;;;;7.15;2.97;;;;;;;16.55;88.95;100733.84;4973757;28;20046;-74
2022/09/13 01:28:53;;;;;;;4.82;2.70;;;;;;;16.54;89.41;100737.50;4984358;28;20118;-74
2022/09/13 01:31:26;;;;;;;;;;;;;;;16.50;89.75;100731.84;4987036;28;20038;-75
2022/09/13 01:34:12;;;;;;;5.00;2.70;;;;;;;16.50;90.10;100726.59;4987951;28;19924;-75
2022/09/13 01:36:46;;;;;;;6.00;2.78;;;;;;;16.49;90.21;100729.41;4967228;28;20041;-75
2022/09/13 01:39:40;;;;;;;4.07;2.75;;;;;;;16.48;90.00;100715.53;4969789;28;20040;-74
2022/09/13 01:42:37;;;;;;;3.80;2.53;;;;;;;16.48;90.07;100719.94;4984466;28;20038;-75
2022/09/13 01:45:15;;;;;;;8.80;2.70;;;;;;;16.48;90.18;100718.16;4967853;28;20043;-74
2022/09/13 01:47:53;;;;;;;3.88;2.85;;;;;;;16.45;90.63;100720.34;4985613;28;20081;-74
2022/09/13 01:50:27;;;;;;;5.97;2.78;;;;;;;16.41;91.05;100717.31;4964458;28;20045;-74
2022/09/13 01:52:57;;;;;;;3.72;2.60;;;;;;;16.38;91.80;100711.66;4984982;28;20491;-75
2022/09/13 01:55:38;;;;;;;5.07;2.80;;;;;;;16.36;91.97;100719.69;4986231;28;20031;-75
2022/09/13 01:58:28;;;;;;;5.15;2.42;;;;;;;16.35;91.10;100705.03;4967935;28;20170;-75
2022/09/13 02:01:07;;;;;;;7.78;2.53;;;;;;;16.37;89.41;100702.19;4981663;28;20041;-75
2022/09/13 02:03:41;;;;;;;8.77;3.00;;;;;;;16.38;89.07;100698.56;4986944;28;20102;-75
2022/09/13 02:06:19;;;;;;;4.30;2.65;;;;;;;16.41;88.02;100704.22;4985004;28;20403;-75
2022/09/13 02:08:56;;;;;;;3.65;2.42;;;;;;;16.43;87.29;100706.66;4984067;28;20042;-75
2022/09/13 02:11:22;;;;;;;5.63;3.08;;;;;;;16.48;85.33;100706.84;4966194;28;20098;-73
2022/09/13 02:14:16;;;;;;;5.20;3.00;;;;;;;16.50;85.55;100704.84;4970196;28;20030;-74
2022/09/13 02:17:22;;;;;;;6.88;2.67;;;;;;;16.52;86.48;100700.25;4984151;28;20458;-73
2022/09/13 02:19:57;;;;;;;3.13;2.20;;;;;;;16.50;86.70;100699.59;4984397;28;20038;-75
2022/09/13 02:22:30;;;;;;;4.15;2.65;;;;;;;16.50;86.97;100697.81;4987237;28;20058;-75
2022/09/13 02:25:00;;;;;;;4.07;2.10;;;;;;;16.51;86.42;100702.03;4964288;28;20071;-73
2022/09/13 02:27:31;;;;;;;3.92;2.00;;;;;;;16.52;85.85;100703.66;4986136;28;20487;-74
2022/09/13 02:30:01;;;;;;;10.98;3.47;;;;;;;16.52;86.47;100708.88;4967035;28;20088;-75
2022/09/13 02:32:33;;;;;;;3.85;2.50;;;;;;;16.52;87.18;100714.13;4986685;28;20602;-73
2022/09/13 02:35:04;;;;;;;5.03;3.00;;;;;;;16.53;88.06;100705.25;4986034;28;20073;-74
2022/09/13 02:37:33;;;;;;;7.70;2.75;;;;;;;16.53;87.95;100713.09;4968712;28;20034;-75
2022/09/13 02:40:03;;;;;;;5.78;3.60;;;;;;;16.54;88.19;100713.94;4987886;28;20026;-74
2022/09/13 02:42:42;;;;;;;3.15;2.45;;;;;;;16.53;88.63;100709.69;4980898;28;20042;-74
2022/09/13 02:45:10;;;;;;;3.25;2.35;;;;;;;16.53;88.61;100710.47;4985631;28;20041;-75
2022/09/13 02:47:58;;;;;;;4.93;2.55;;;;;;;16.52;89.41;100711.50;4988062;28;20053;-75
2022/09/13 02:50:52;;;;;;;5.13;2.60;;;;;;;16.53;89.72;100712.31;4986971;28;20039;-75
2022/09/13 02:53:36;;;;;;;4.93;2.78;;;;;;;16.51;89.93;100709.88;4985905;28;20041;-75
2022/09/13 02:56:29;;;;;;;5.03;2.80;;;;;;;16.52;89.87;100710.72;4991977;28;20388;-75
2022/09/13 02:59:15;;;;;;;3.97;2.30;;;;;;;16.53;90.64;100714.94;4970767;28;20030;-76
2022/09/13 03:01:47;;;;;;;3.08;2.58;;;;;;;16.53;91.89;100726.19;4990593;28;20041;-76
2022/09/13 03:04:12;;;;;;;4.18;2.75;;;;;;;16.51;92.73;100725.59;4991071;28;20045;-76
2022/09/13 03:06:39;;;;;;;3.95;2.95;;;;;;;16.51;93.49;100730.81;4991945;28;20031;-76
2022/09/13 03:09:05;;;;;;;5.10;2.50;;;;;;;16.51;94.09;100711.69;4989746;28;20035;-76
2022/09/13 03:12:05;;;;;;;3.97;2.35;;;;;;;16.51;94.32;100719.56;4991275;28;20038;-76
2022/09/13 03:14:45;;;;;;;5.43;2.55;;;;;;;16.51;94.74;100722.97;4992702;28;20040;-76
2022/09/13 03:17:27;;;;;;;5.55;2.60;;;;;;;16.51;95.30;100717.72;4974618;28;20096;-75
2022/09/13 03:20:11;;;;;;;5.05;2.60;;;;;;;16.51;95.72;100720.34;4986060;28;20038;-76
2022/09/13 03:23:08;;;;;;;4.93;2.50;;;;;;;16.52;96.42;100715.94;4989236;28;20042;-75
2022/09/13 03:25:50;;;;;;;5.38;2.53;;;;;;;16.50;97.05;100710.91;4988270;28;20040;-75
2022/09/13 03:28:38;;;;;;;5.47;3.42;;;;;;;16.49;97.42;100711.09;4989670;28;20450;-75
2022/09/13 03:31:22;;;;;;;3.00;2.20;;;;;;;16.45;98.31;100705.44;4973403;28;20057;-75
2022/09/13 03:34:22;;;;;;;8.02;2.60;;;;;;;16.44;98.49;100706.44;4990128;28;20158;-75
2022/09/13 03:37:25;;;;;;;4.50;2.45;;;;;;;16.45;98.36;100704.66;4981883;28;20055;-75
2022/09/13 03:40:25;;;;;;;5.65;2.60;;;;;;;16.45;98.15;100692.34;4989886;28;20518;-74
2022/09/13 03:43:00;;;;;;;6.28;2.92;;;;;;;16.47;98.29;100702.63;4969216;28;20388;-75
2022/09/13 03:45:30;;;;;;;4.80;2.45;;;;;;;16.48;98.13;100699.00;4981800;28;20058;-75
2022/09/13 03:47:56;;;;;;;3.65;2.50;;;;;;;16.48;98.10;100697.22;4987184;28;20046;-75
2022/09/13 03:50:24;;;;;;;5.07;2.83;;;;;;;16.49;98.19;100696.19;4995311;28;20128;-75
2022/09/13 03:52:57;;;;;;;5.80;2.33;;;;;;;16.47;99.00;100695.59;4996162;28;20057;-75
2022/09/13 03:55:24;;;;;;;7.18;3.47;;;;;;;16.46;99.71;100693.97;4972362;28;20065;-75
2022/09/13 03:57:50;;;;;;;3.88;2.65;;;;;;;16.43;100.00;100699.59;4970423;28;20388;-74
2022/09/13 04:00:17;;;;;;;6.72;2.90;;;;;;;16.42;100.00;100697.97;4988515;28;20039;-75
2022/09/13 04:02:43;;;;;;;5.63;3.38;;;;;;;16.43;100.00;100693.56;4988219;28;20072;-75
2022/09/13 04:05:09;;;;;;;4.65;3.08;;;;;;;16.40;100.00;100689.53;4988872;28;20534;-75
2022/09/13 04:07:35;;;;;;;5.65;3.58;;;;;;;16.39;100.00;100701.00;4991280;28;20121;-75
2022/09/13 04:10:00;;;;;;;4.53;3.38;;;;;;;16.38;100.00;100699.38;4985338;28;20038;-75
2022/09/13 04:12:29;;;;;;;6.53;3.45;;;;;;;16.38;100.00;100696.75;4987832;28;20037;-75
2022/09/13 04:14:55;;;;;;;7.20;3.45;;;;;;;16.37;100.00;100702.19;4988805;28;20499;-75
2022/09/13 04:17:21;;;;;;;4.88;3.50;;;;;;;16.35;100.00;100697.97;4988094;28;20054;-76
2022/09/13 04:19:46;;;;;;;5.93;3.47;;;;;;;16.37;100.00;100699.56;4987826;28;20045;-75
2022/09/13 04:22:12;;;;;;;4.93;3.63;;;;;;;16.38;100.00;100704.59;4991630;28;20093;-76
2022/09/13 04:24:38;;;;;;;6.28;3.35;;;;;;;16.37;100.00;100700.41;4987334;28;20029;-76
2022/09/13 04:27:04;;;;;;;5.78;3.85;;;;;;;16.40;100.00;100704.41;4986781;28;20108;-76
2022/09/13 04:29:31;;;;;;;10.50;3.28;;;;;;;16.39;100.00;100708.84;4988814;28;20487;-76
2022/09/13 04:31:58;;;;;;;5.07;3.22;;;;;;;16.39;100.00;100710.63;4987867;28;20046;-76
2022/09/13 04:34:23;;;;;;;5.43;3.53;;;;;;;16.37;100.00;100721.31;4975882;28;20038;-76
2022/09/13 04:36:51;;;;;;;4.30;3.33;;;;;;;16.36;100.00;100722.31;4988486;28;20034;-77
2022/09/13 04:39:16;;;;;;;5.15;2.92;;;;;;;16.36;100.00;100717.09;4988087;28;20030;-77
2022/09/13 04:41:46;;;;;;;6.80;2.92;;;;;;;16.35;100.00;100718.91;4975139;28;20050;-78
2022/09/13 04:44:13;;;;;;;7.07;3.67;;;;;;;16.34;100.00;100706.81;4976365;28;20039;-76
2022/09/13 04:46:39;;;;;;;5.82;3.78;;;;;;;16.34;100.00;100706.00;4969904;28;20027;-76
2022/09/13 04:49:05;;;;;;;4.88;3.00;;;;;;;16.33;100.00;100710.44;4988067;28;20064;-77
2022/09/13 04:51:30;;;;;;;4.75;3.05;;;;;;;16.31;100.00;100709.00;4987814;28;20522;-77
2022/09/13 04:53:56;;;;;;;7.22;3.10;;;;;;;16.29;100.00;100705.78;4988228;28;20038;-76
2022/09/13 04:56:24;;;;;;;6.65;3.63;;;;;;;16.28;100.00;100694.50;4986793;28;20054;-76
2022/09/13 04:58:50;;;;;;;5.88;3.50;;;;;;;16.27;100.00;100699.94;4974819;28;20470;-76
2022/09/13 05:01:16;;;;;;;5.80;3.17;;;;;;;16.25;100.00;100707.19;4989858;28;20038;-77
2022/09/13 05:03:41;;;;;;;6.18;2.97;;;;;;;16.26;100.00;100711.44;4971773;28;20034;-76
2022/09/13 05:06:10;;;;;;;5.57;3.45;;;;;;;16.26;100.00;100717.47;4968763;28;20072;-76
2022/09/13 05:08:37;;;;;;;6.45;3.47;;;;;;;16.25;100.00;100707.97;4985666;28;20037;-76
2022/09/13 05:11:03;;;;;;;3.35;2.72;;;;;;;16.27;100.00;100707.78;4987188;28;20045;-76
2022/09/13 05:13:29;;;;;;;5.53;3.50;;;;;;;16.25;100.00;100707.19;4967933;28;20132;-76
2022/09/13 05:16:01;;;;;;;7.50;3.20;;;;;;;16.21;100.00;100719.03;4980169;28;20046;-76
2022/09/13 05:18:29;;;;;;;5.22;3.17;;;;;;;16.22;100.00;100718.03;4975293;28;20463;-76
2022/09/13 05:20:56;;;;;;;6.75;3.03;;;;;;;16.20;100.00;100720.03;4987847;28;20088;-76
2022/09/13 05:23:22;;;;;;;4.03;3.10;;;;;;;16.21;100.00;100717.22;5001515;28;20034;-76
2022/09/13 05:25:56;;;;;;;5.72;3.60;;;;;;;16.19;100.00;100723.66;4987368;28;20037;-75
2022/09/13 05:28:23;;;;;;;7.10;2.95;;;;;;;16.18;100.00;100727.25;4970197;28;20042;-76
2022/09/13 05:30:58;;;;;;;5.45;3.25;;;;;;;16.19;100.00;100721.84;4970839;28;20038;-76
2022/09/13 05:33:30;;;;;;;6.57;3.30;;;;;;;16.19;100.00;100711.38;4984683;28;20407;-75
2022/09/13 05:35:55;;;;;;;5.07;3.10;;;;;;;16.22;100.00;100715.41;4980100;28;20112;-75
2022/09/13 05:38:21;;;;;;;7.05;3.53;;;;;;;16.25;100.00;100715.03;4984699;28;20595;-75
2022/09/13 05:40:47;;;;;;;9.30;3.40;;;;;;;16.24;100.00;100709.00;4984485;28;20045;-76
2022/09/13 05:43:13;;;;;;;5.50;3.13;;;;;;;16.24;100.00;100714.22;4972778;28;20049;-75
2022/09/13 05:45:39;;;;;;;7.43;3.65;;;;;;;16.25;100.00;100718.44;4985791;28;20026;-75
2022/09/13 05:48:05;;;;;;;8.05;3.17;;;;;;;16.26;100.00;100722.69;4983256;28;20062;-76
2022/09/13 05:50:30;;;;;;;7.55;3.05;;;;;;;16.29;100.00;100721.47;4990977;28;20045;-75
2022/09/13 05:52:56;;;;;;;6.75;3.50;;;;;;;16.30;100.00;100725.72;4986132;28;20038;-75
2022/09/13 05:55:22;;;;;;;6.95;3.00;;;;;;;16.33;100.00;100723.53;4972644;28;20026;-74
2022/09/13 05:57:48;;;;;;;6.13;2.95;;;;;;;16.33;100.00;100728.75;4988476;28;20034;-75
2022/09/13 06:00:15;;;;;;;9.90;3.60;;;;;;;16.38;100.00;100727.34;4969427;28;20113;-75
2022/09/13 06:02:41;;;;;;;10.30;3.50;;;;;;;16.39;100.00;100719.31;4986050;28;20488;-75
2022/09/13 06:05:10;;;;;;;5.07;2.92;;;;;;;16.41;100.00;100725.16;4979804;28;20039;-76
2022/09/13 06:07:41;;;;;;;6.68;2.97;;;;;;;16.43;100.00;100725.78;4983063;28;20656;-75
2022/09/13 06:10:10;;;;;;;6.13;2.70;;;;;;;16.45;100.00;100718.53;4984627;28;20030;-75
2022/09/13 06:12:37;;;;;;;4.93;2.97;;;;;;;16.45;100.00;100722.97;4983691;28;20038;-75
2022/09/13 06:15:02;;;;;;;3.55;2.38;;;;;;;16.46;100.00;100721.94;4986472;28;20120;-75
2022/09/13 06:17:28;;;;;;;4.88;2.83;;;;;;;16.50;100.00;100723.16;4987204;28;20530;-75
2022/09/13 06:19:53;;;;;;;4.50;2.90;;;;;;;16.53;100.00;100723.56;4986263;28;20038;-75
2022/09/13 06:22:19;;;;;;;5.05;2.75;;;;;;;16.58;100.00;100732.66;4991947;28;20068;-75
2022/09/13 06:24:44;;;;;;;4.72;2.85;;;;;;;16.60;99.64;100731.47;4987849;28;20914;-75
2022/09/13 06:27:09;;;;;;;5.80;2.53;;;;;;;16.60;99.47;100734.06;4987412;28;20511;-74
2022/09/13 06:29:36;;;;;;;3.63;2.28;;;;;;;16.61;98.26;100729.63;4990631;28;20767;-75
2022/09/13 06:32:05;;;;;;;4.97;2.40;;;;;;;16.62;97.33;100726.03;4989099;28;20399;-75
2022/09/13 06:34:30;;;;;;;3.65;2.35;;;;;;;16.66;95.45;100727.25;4989451;28;20062;-75
2022/09/13 06:36:56;;;;;;;3.47;2.10;;;;;;;16.77;92.79;100724.03;4988220;28;20045;-75
2022/09/13 06:39:21;;;;;;;3.88;2.22;;;;;;;16.77;92.03;100721.44;4980012;28;20022;-74
2022/09/13 06:41:47;;;;;;;4.05;2.00;;;;;;;16.78;91.95;100724.84;4991681;28;20065;-74
2022/09/13 06:44:12;;;;;;;4.93;2.35;;;;;;;16.81;92.16;100724.47;4986439;28;20046;-74
2022/09/13 06:46:38;;;;;;;3.22;2.08;;;;;;;16.84;92.35;100711.81;4989487;28;20126;-74
2022/09/13 06:49:06;;;;;;;5.20;2.15;;;;;;;16.94;90.89;100711.41;4987668;28;20031;-75
2022/09/13 06:51:32;;;;;;;2.58;1.88;;;;;;;16.97;90.01;100712.81;4974092;28;20394;-73
2022/09/13 06:53:59;;;;;;;3.15;1.92;;;;;;;17.01;89.56;100708.78;4973243;28;20168;-73
2022/09/13 06:56:29;;;;;;;4.63;1.75;;;;;;;17.03;89.03;100715.47;4987140;28;20038;-74
2022/09/13 06:59:00;;;;;;;3.58;2.75;;;;;;;17.06;89.66;100712.41;4990827;28;20078;-73
2022/09/13 07:01:28;;;;;;;4.03;2.22;;;;;;;17.05;90.08;100715.25;4990086;28;20045;-73
2022/09/13 07:03:58;;;;;;;2.90;2.00;;;;;;;17.05;90.11;100716.06;4990851;28;20042;-74
2022/09/13 07:06:26;;;;;;;3.63;2.30;;;;;;;17.06;90.36;100716.84;4984929;28;20038;-73
2022/09/13 07:08:54;;;;;;;3.70;2.40;;;;;;;17.07;90.86;100708.00;4987914;28;20120;-73
2022/09/13 07:11:22;;;;;;;2.55;1.70;;;;;;;17.08;91.36;100717.47;4995800;28;20495;-73
2022/09/13 07:13:49;;;;;;;3.45;2.10;;;;;;;17.11;91.42;100719.69;4990989;28;20084;-73
2022/09/13 07:16:15;;;;;;;2.67;2.13;;;;;;;17.21;90.77;100717.47;4987909;28;20034;-72
2022/09/13 07:18:40;;;;;;;3.92;2.00;;;;;;;17.22;90.56;100713.06;4972345;28;20395;-73
2022/09/13 07:21:08;;;;;;;5.88;2.20;;;;;;;17.23;90.57;100718.06;4990243;28;20046;-73
2022/09/13 07:23:35;;;;;;;5.32;2.03;;;;;;;17.28;90.68;100715.66;4984762;28;20038;-73
2022/09/13 07:26:01;;;;;;;3.75;2.00;;;;;;;17.29;90.06;100713.81;5004810;28;20521;-73
2022/09/13 07:28:29;;;;;;;4.75;2.45;;;;;;;17.34;89.65;100715.84;4984114;28;20043;-74
2022/09/13 07:30:57;;;;;;;3.22;1.73;;;;;;;17.38;89.21;100723.09;4982618;28;20117;-73
2022/09/13 07:33:24;;;;;;;3.35;2.08;;;;;;;17.44;88.90;100718.88;4985554;28;20042;-74
2022/09/13 07:36:02;;;;;;;3.10;1.88;;;;;;;17.52;89.39;100726.53;4971246;28;20026;-72
2022/09/13 07:38:27;;;;;;;5.28;2.03;;;;;;;17.59;89.32;100729.13;4986843;28;20042;-73
2022/09/13 07:40:58;;;;;;;2.78;2.20;;;;;;;17.64;89.24;100732.75;4989322;28;20041;-73
2022/09/13 07:43:28;;;;;;;2.60;1.52;;;;;;;17.73;89.70;100741.22;4985871;28;20047;-73
2022/09/13 07:46:14;;;;;;;3.30;1.98;;;;;;;17.81;90.10;100742.81;4986070;28;20336;-73
2022/09/13 07:48:41;;;;;;;5.05;2.20;;;;;;;17.88;89.27;100747.06;4989211;28;20038;-73
2022/09/13 07:51:15;;;;;;;3.85;2.33;;;;;;;18.00;88.11;100752.47;4988682;28;20038;-73
2022/09/13 07:53:42;;;;;;;6.10;2.30;;;;;;;18.16;84.36;100742.53;4982914;28;20057;-73
2022/09/13 07:56:10;;;;;;;4.13;2.08;;;;;;;18.31;83.00;100752.78;4984567;28;20644;-73
2022/09/13 07:58:37;;;;;;;2.80;2.38;;;;;;;18.44;82.78;100752.72;4988020;28;20034;-73
2022/09/13 08:01:06;;;;;;;4.88;2.50;;;;;;;18.58;82.64;100750.84;4986342;28;20064;-73
2022/09/13 08:03:33;;;;;;;3.05;2.17;;;;;;;18.77;83.03;100749.94;4986520;28;20058;-73
2022/09/13 08:06:00;;;;;;;4.40;2.28;;;;;;;18.91;81.92;100752.50;4970161;28;20039;-73
2022/09/13 08:08:26;;;;;;;6.00;2.03;;;;;;;19.10;80.86;100740.25;4988423;28;20042;-73
2022/09/13 08:10:51;;;;;;;5.93;2.38;;;;;;;19.44;79.62;100744.22;4990087;28;20046;-74
2022/09/13 08:13:17;;;;;;;6.65;2.53;;;;;;;19.88;78.17;100742.41;4985509;28;20043;-72
2022/09/13 08:15:43;;;;;;;6.30;2.40;;;;;;;20.36;75.74;100738.19;4966050;28;20089;-71
2022/09/13 08:18:09;;;;;;;2.95;2.30;;;;;;;20.85;74.46;100739.00;4969122;28;20041;-73
2022/09/13 08:20:37;;;;;;;3.40;2.28;;;;;;;21.22;72.60;100735.38;4984398;28;20030;-73
2022/09/13 08:23:03;;;;;;;3.50;2.50;;;;;;;21.62;69.73;100738.16;4988759;28;20213;-73
2022/09/13 08:25:30;;;;;;;6.40;2.10;;;;;;;21.88;68.03;100739.50;4986398;28;20072;-74
2022/09/13 08:27:56;;;;;;;5.18;2.13;;;;;;;22.10;67.30;100733.59;4989233;28;20411;-72
2022/09/13 08:30:21;;;;;;;4.43;2.20;;;;;;;22.48;67.06;100733.03;4987910;28;20042;-73
2022/09/13 08:32:49;;;;;;;7.95;2.63;;;;;;;22.75;66.07;100743.00;4986688;28;20045;-73
2022/09/13 08:35:14;;;;;;;5.13;2.80;;;;;;;22.99;64.57;100733.09;4982973;28;20546;-73
2022/09/13 08:37:40;;;;;;;5.40;2.90;;;;;;;23.31;63.01;100733.34;4984319;28;20050;-73
2022/09/13 08:40:06;;;;;;;4.55;2.40;;;;;;;23.60;62.04;100730.59;4987731;28;20022;-72
2022/09/13 08:42:57;;;;;;;4.82;3.00;;;;;;;23.66;61.11;100734.91;4985872;28;20046;-73
2022/09/13 08:45:23;;;;;;;7.03;3.63;;;;;;;23.64;60.79;100734.34;4985756;28;20129;-73
2022/09/13 08:48:03;;;;;;;7.75;3.28;;;;;;;23.49;61.77;100744.72;4986464;28;20166;-73
2022/09/13 08:50:35;;;;;;;6.65;2.72;;;;;;;23.73;61.22;100745.28;4985237;28;20104;-73
2022/09/13 08:53:22;;;;;;;7.65;3.67;;;;;;;24.17;59.74;100737.41;4984357;28;20049;-71
2022/09/13 08:56:11;;;;;;;9.23;4.10;;;;;;;24.29;57.18;100743.34;4985461;28;20038;-74
2022/09/13 08:58:53;;;;;;;8.88;4.05;;;;;;;24.42;59.35;100730.75;4986055;28;20040;-73
2022/09/13 09:01:28;;;;;;;7.40;3.08;;;;;;;24.53;58.35;100727.19;4987340;28;20050;-73
2022/09/13 09:04:37;;;;;;;7.38;3.03;;;;;;;24.47;56.82;100722.88;4971579;28;20818;-73
2022/09/13 09:07:25;;;;;;;6.15;3.33;;;;;;;24.62;56.10;100722.22;4981588;28;20058;-73
2022/09/13 09:09:56;;;;;;;6.30;3.30;;;;;;;24.78;57.22;100720.50;4985327;28;20038;-73
2022/09/13 09:12:41;;;;;;;4.50;3.17;;;;;;;24.86;58.34;100720.88;4986021;28;20658;-73
2022/09/13 09:15:15;;;;;;;6.00;3.17;;;;;;;24.64;57.69;100718.28;4984241;28;20062;-73
2022/09/13 09:17:50;;;;;;;6.70;3.92;;;;;;;24.53;57.32;100723.75;4963229;28;20041;-73
2022/09/13 09:20:49;;;;;;;4.85;3.10;;;;;;;24.82;58.21;100718.97;4985415;28;20168;-74
2022/09/13 09:23:18;;;;;;;8.20;3.35;;;;;;;24.95;57.54;100720.38;4974066;28;20054;-73
2022/09/13 09:25:45;;;;;;;7.85;4.03;;;;;;;24.99;57.86;100721.47;4966816;28;20069;-73
2022/09/13 09:28:16;;;;;;;6.22;3.40;;;;;;;24.82;56.86;100719.75;4985609;28;20038;-73
2022/09/13 09:30:52;;;;;;;6.78;3.63;;;;;;;24.79;57.26;100714.16;5001293;28;20045;-74
2022/09/13 09:33:39;;;;;;;7.57;4.13;;;;;;;24.98;56.96;100720.69;4970049;28;20038;-73
2022/09/13 09:36:30;;;;;;;8.15;4.65;;;;;;;25.08;56.70;100716.50;4984400;28;20475;-74
2022/09/13 09:38:56;;;;;;;9.63;4.70;;;;;;;24.93;55.88;100719.84;4963662;28;20066;-73
2022/09/13 09:41:31;;;;;;;10.02;4.22;;;;;;;24.71;56.48;100719.91;4987314;28;20117;-72
2022/09/13 09:44:19;;;;;;;10.90;5.72;;;;;;;24.52;58.61;100719.50;5002755;28;20061;-74
2022/09/13 09:46:54;;;;;;;9.40;5.30;;;;;;;24.75;56.59;100721.00;4983810;28;20121;-73
2022/09/13 09:52:21;;;;;;;9.15;5.22;;;;;;;24.76;57.12;100725.28;4979006;28;20041;-74
2022/09/13 09:54:49;;;;;;;17.45;6.10;;;;;;;24.68;57.10;100723.88;4968292;28;20034;-73
2022/09/13 09:57:17;;;;;;;9.00;5.22;;;;;;;24.72;57.93;100718.88;4984332;28;20579;-74
2022/09/13 09:59:43;;;;;;;11.45;5.47;;;;;;;25.06;58.33;100719.41;4988557;28;20578;-73
2022/09/13 10:02:20;;;;;;;17.23;6.75;;;;;;;25.02;54.63;100716.47;4984839;28;20035;-73
2022/09/13 10:04:57;;;;;;;8.30;5.40;;;;;;;25.03;55.38;100717.25;4983335;28;20046;-73
2022/09/13 10:07:31;;;;;;;8.52;5.40;;;;;;;25.08;55.05;100705.91;4988701;28;20061;-72
2022/09/13 10:10:05;;;;;;;7.53;3.50;;;;;;;25.18;56.01;100704.09;4982368;28;20856;-74
2022/09/13 10:12:34;;;;;;;9.48;4.95;;;;;;;24.74;55.56;100708.81;4984325;28;20038;-73
2022/09/13 10:15:20;;;;;;;9.02;4.30;;;;;;;24.86;52.83;100702.31;4986494;28;20042;-73
2022/09/13 10:18:05;;;;;;;11.80;4.93;;;;;;;24.83;55.49;100709.97;4990413;28;20046;-73
2022/09/13 10:20:31;;;;;;;9.38;3.95;;;;;;;25.06;57.65;100709.59;4975734;28;20026;-73
2022/09/13 10:23:19;;;;;;;8.95;4.40;;;;;;;25.15;55.46;100701.19;4986642;28;20092;-74
2022/09/13 10:26:03;;;;;;;7.85;4.80;;;;;;;25.06;59.52;100704.28;4986326;28;20593;-73
2022/09/13 10:28:31;;;;;;;12.52;5.47;;;;;;;25.18;57.11;100704.09;4990313;28;20039;-73
2022/09/13 10:30:59;;;;;;;10.02;4.50;;;;;;;25.47;56.05;100708.25;4984635;28;20043;-73
2022/09/13 10:33:40;;;;;;;9.30;5.45;;;;;;;25.40;55.24;100709.31;4985192;28;20044;-73
2022/09/13 10:36:25;;;;;;;9.48;5.38;;;;;;;25.33;54.81;100708.72;4983379;28;20050;-74
2022/09/13 10:38:59;;;;;;;12.48;5.50;;;;;;;25.05;55.68;100699.22;4981616;28;20038;-74
2022/09/13 10:41:29;;;;;;;9.45;5.30;;;;;;;25.08;54.52;100692.63;4984890;28;20991;-74
2022/09/13 10:43:59;;;;;;;7.20;5.00;;;;;;;25.09;55.69;100705.66;4986105;28;20062;-74
2022/09/13 10:46:30;;;;;;;6.97;4.70;;;;;;;25.13;55.51;100703.25;4981802;28;20799;-74
2022/09/13 10:48:56;;;;;;;7.63;4.40;;;;;;;25.14;55.06;100704.88;4984935;28;20077;-74
2022/09/13 10:51:24;;;;;;;9.45;5.18;;;;;;;25.35;54.62;100695.22;4989112;28;20030;-74
2022/09/13 10:53:50;;;;;;;8.90;4.38;;;;;;;25.08;55.72;100697.94;4983137;28;20121;-74
2022/09/13 10:56:25;;;;;;;9.43;4.70;;;;;;;24.97;56.43;100697.06;4985913;28;20130;-73
2022/09/13 10:59:10;;;;;;;7.63;4.32;;;;;;;24.86;57.31;100698.84;4983780;28;20038;-74
2022/09/13 11:01:59;;;;;;;7.63;4.85;;;;;;;24.98;57.72;100699.47;4988622;28;20121;-73
2022/09/13 11:04:38;;;;;;;12.32;5.10;;;;;;;25.04;58.05;100693.13;4985291;28;20030;-74
2022/09/13 11:07:35;;;;;;;8.02;4.55;;;;;;;24.92;58.09;100689.88;4986237;28;20062;-74
2022/09/13 11:10:21;;;;;;;7.03;3.80;;;;;;;24.81;57.77;100694.31;4980407;28;20146;-74
2022/09/13 11:13:14;;;;;;;5.03;3.00;;;;;;;25.14;58.26;100689.75;4987348;28;20056;-74
2022/09/13 11:15:56;;;;;;;;;;;;;;;25.35;58.21;100687.25;4987148;28;20121;-74
2022/09/13 11:18:37;;;;;;;9.48;4.28;;;;;;;25.30;55.15;100684.56;5003318;28;19913;-74
2022/09/13 11:21:16;;;;;;;10.55;3.47;;;;;;;25.43;54.66;100684.13;4989591;28;20042;-74
2022/09/13 11:23:50;;;;;;;6.72;4.47;;;;;;;25.50;54.61;100678.56;4986355;28;20044;-74
2022/09/13 11:26:44;;;;;;;8.38;4.65;;;;;;;25.64;54.10;100671.72;4981816;28;20724;-74
2022/09/13 11:29:21;;;;;;;5.47;3.55;;;;;;;25.79;54.85;100668.34;4987322;28;20113;-73
2022/09/13 11:31:49;;;;;;;6.78;3.72;;;;;;;25.77;56.26;100665.94;4988321;28;20431;-74
2022/09/13 11:34:35;;;;;;;6.55;3.70;;;;;;;25.64;55.94;100661.91;4971063;28;20035;-74
2022/09/13 11:37:19;;;;;;;9.40;3.50;;;;;;;25.62;55.31;100663.25;4988824;28;20116;-73
2022/09/13 11:39:47;;;;;;;8.23;4.82;;;;;;;25.76;55.79;100653.72;4985759;28;20430;-74
2022/09/13 11:42:45;;;;;;;10.20;4.72;;;;;;;25.93;52.19;100648.22;4972695;28;20038;-74
2022/09/13 11:46:09;;;;;;;10.05;4.28;;;;;;;25.95;53.73;100651.41;4987604;28;20065;-74
2022/09/13 11:49:04;;;;;;;5.55;4.03;;;;;;;25.94;52.34;100647.16;4949474;28;20483;-73
2022/09/13 11:51:49;;;;;;;4.97;3.40;;;;;;;25.96;52.56;100646.91;4966682;28;20137;-74
2022/09/13 11:54:21;;;;;;;7.47;4.40;;;;;;;25.64;52.85;100639.88;4985208;28;20088;-73